Time;durP1;ratioP1;P1;durP2;ratioP2;P2;SDS_P1;SDS_P2;PMS_P1;PMS_P2;Temp;Humidity;BMP_temperature;BMP_pressure;BME280_temperature;BME280_humidity;BME280_pressure;Samples;Min_cycle;Max_cycle;Signal;HPM_P1;HPM_P2
2021/12/13 08:55:21;;;;;;;17.35;10.38;;;;;;;-0.75;100.00;98477.06;1826663;77;21347;-60
2021/12/13 08:58:17;;;;;;;11.53;7.70;;;;;;;-0.72;100.00;98483.23;1832828;77;21074;-62
2021/12/13 09:01:09;;;;;;;15.90;14.28;;;;;;;-0.67;100.00;98473.41;1820989;77;20963;-61
2021/12/13 09:03:40;;;;;;;28.92;26.68;;;;;;;-0.62;100.00;98474.42;1820299;77;20990;-64
2021/12/13 09:06:23;;;;;;;27.07;25.08;;;;;;;-0.55;100.00;98478.34;1798583;79;20931;-63
2021/12/13 09:09:17;;;;;;;9.50;6.72;;;;;;;-0.50;100.00;98480.66;1767979;80;21442;-62
2021/12/13 09:12:07;;;;;;;9.68;6.75;;;;;;;-0.45;100.00;98476.08;1742702;81;21721;-66
2021/12/13 09:14:43;;;;;;;10.05;6.78;;;;;;;-0.39;100.00;98473.42;1742948;82;20973;-62
2021/12/13 09:17:25;;;;;;;9.48;7.10;;;;;;;-0.34;100.00;98474.92;1774560;80;21281;-67
2021/12/13 09:20:15;;;;;;;10.75;7.83;;;;;;;-0.35;99.25;98468.03;1791513;79;20925;-67
2021/12/13 09:22:49;;;;;;;11.08;7.80;;;;;;;-0.32;99.18;98466.80;1777786;80;20945;-66
2021/12/13 09:25:35;;;;;;;12.05;7.72;;;;;;;-0.33;98.89;98467.30;1776877;79;21122;-65
2021/12/13 09:28:26;;;;;;;11.18;9.68;;;;;;;-0.32;98.63;98462.35;1757015;80;21018;-62
2021/12/13 09:31:06;;;;;;;8.83;7.62;;;;;;;-0.35;98.01;98461.45;1769996;80;20947;-61
2021/12/13 09:33:41;;;;;;;8.75;6.47;;;;;;;-0.39;97.91;98464.70;1819802;77;21069;-63
2021/12/13 09:36:14;;;;;;;8.00;6.42;;;;;;;-0.39;97.93;98462.89;1815681;79;20985;-60
2021/12/13 09:38:56;;;;;;;45.58;27.48;;;;;;;-0.43;97.83;98463.02;1814714;78;21115;-63
2021/12/13 09:41:31;;;;;;;12.13;8.73;;;;;;;-0.46;97.93;98468.69;1814943;79;21056;-64
2021/12/13 09:44:15;;;;;;;12.13;8.18;;;;;;;-0.48;97.95;98462.83;1817087;77;21811;-62
2021/12/13 09:46:52;;;;;;;11.78;8.53;;;;;;;-0.48;97.96;98461.52;1814227;78;21014;-60
2021/12/13 09:49:36;;;;;;;13.08;7.47;;;;;;;-0.51;97.79;98459.29;1815570;78;20968;-61
2021/12/13 09:52:20;;;;;;;12.20;7.78;;;;;;;-0.50;97.54;98468.00;1816427;79;21116;-62
2021/12/13 09:54:55;;;;;;;11.55;8.70;;;;;;;-0.48;97.43;98462.83;1809256;77;20898;-65
2021/12/13 09:57:27;;;;;;;12.68;9.38;;;;;;;-0.49;97.25;98467.78;1817134;77;20880;-59
2021/12/13 09:59:54;;;;;;;10.15;7.78;;;;;;;-0.51;97.48;98464.55;1811225;77;20922;-60
2021/12/13 10:02:29;;;;;;;10.53;7.92;;;;;;;-0.50;97.61;98471.45;1793072;78;21477;-59
2021/12/13 10:04:56;;;;;;;13.13;8.40;;;;;;;-0.46;97.61;98476.58;1808913;77;22144;-64
2021/12/13 10:07:32;;;;;;;12.47;9.20;;;;;;;-0.48;97.29;98474.67;1825392;77;21097;-62
2021/12/13 10:10:11;;;;;;;10.70;8.15;;;;;;;-0.51;97.32;98476.39;1812982;77;21471;-63
2021/12/13 10:12:44;;;;;;;11.70;8.15;;;;;;;-0.49;97.36;98478.30;1818696;77;20923;-58
2021/12/13 10:15:24;;;;;;;10.25;8.45;;;;;;;-0.47;97.06;98472.32;1809010;77;20988;-64
2021/12/13 10:17:55;;;;;;;11.28;8.25;;;;;;;-0.51;96.83;98472.45;1794747;78;21072;-66
2021/12/13 10:20:42;;;;;;;11.48;9.05;;;;;;;-0.53;96.81;98473.17;1798595;77;21110;-60
2021/12/13 10:23:12;;;;;;;13.28;8.78;;;;;;;-0.55;96.93;98471.26;1815743;77;21529;-60
2021/12/13 10:25:43;;;;;;;11.48;8.60;;;;;;;-0.50;97.01;98475.39;1810541;77;21053;-60
2021/12/13 10:28:14;;;;;;;11.95;8.68;;;;;;;-0.44;96.97;98479.81;1809378;77;21008;-58
2021/12/13 10:30:49;;;;;;;11.20;8.60;;;;;;;-0.42;96.81;98476.45;1795181;77;21768;-61
2021/12/13 10:33:23;;;;;;;11.53;8.98;;;;;;;-0.39;96.69;98477.36;1795205;77;21062;-64
2021/12/13 10:35:52;;;;;;;11.95;8.85;;;;;;;-0.40;96.57;98480.22;1765210;79;21053;-63
2021/12/13 10:38:23;;;;;;;14.03;9.00;;;;;;;-0.44;96.62;98477.18;1810486;77;20993;-60
2021/12/13 10:40:57;;;;;;;11.05;8.58;;;;;;;-0.45;96.62;98480.03;1812911;77;20960;-62
2021/12/13 10:43:32;;;;;;;13.35;10.15;;;;;;;-0.42;96.53;98483.04;1801985;77;21153;-64
2021/12/13 10:46:03;;;;;;;12.93;10.23;;;;;;;-0.45;96.42;98481.34;1808606;77;21070;-60
2021/12/13 10:48:31;;;;;;;13.00;8.80;;;;;;;-0.48;96.42;98484.38;1809408;77;21562;-61
2021/12/13 10:51:09;;;;;;;10.63;8.53;;;;;;;-0.52;96.37;98479.24;1799775;77;21482;-63
2021/12/13 10:53:37;;;;;;;12.43;9.00;;;;;;;-0.52;96.49;98485.33;1822046;77;20998;-61
2021/12/13 10:56:10;;;;;;;12.73;9.18;;;;;;;-0.50;96.39;98483.29;1822675;77;21061;-64
2021/12/13 10:58:43;;;;;;;14.83;9.15;;;;;;;-0.47;96.35;98486.80;1795746;78;21000;-60
2021/12/13 11:01:15;;;;;;;11.95;8.98;;;;;;;-0.46;96.33;98484.48;1799843;78;21094;-65
2021/12/13 11:03:44;;;;;;;11.38;8.20;;;;;;;-0.41;96.01;98483.35;1797709;78;21109;-62
2021/12/13 11:06:13;;;;;;;12.78;8.85;;;;;;;-0.36;95.98;98484.86;1780047;78;21050;-62
2021/12/13 11:08:44;;;;;;;12.25;9.20;;;;;;;-0.37;95.90;98480.59;1796533;78;21843;-64
2021/12/13 11:11:21;;;;;;;11.20;8.28;;;;;;;-0.35;96.01;98477.73;1803675;77;21050;-66
2021/12/13 11:13:53;;;;;;;10.55;8.40;;;;;;;-0.31;95.84;98482.41;1813048;77;21022;-56
2021/12/13 11:16:26;;;;;;;11.33;8.48;;;;;;;-0.29;95.51;98473.79;1811112;77;20919;-59
2021/12/13 11:18:54;;;;;;;12.65;9.10;;;;;;;-0.25;95.29;98477.61;1815299;77;21512;-62
2021/12/13 11:21:25;;;;;;;12.85;9.55;;;;;;;-0.21;95.23;98476.67;1809461;77;21483;-58
2021/12/13 11:23:52;;;;;;;11.78;9.50;;;;;;;-0.19;95.20;98469.39;1807482;77;21105;-62
2021/12/13 11:26:22;;;;;;;12.03;9.15;;;;;;;-0.13;95.20;98469.36;1799639;77;20856;-63
2021/12/13 11:28:49;;;;;;;13.18;8.70;;;;;;;-0.12;95.05;98470.17;1806085;77;21366;-63
2021/12/13 11:31:34;;;;;;;11.70;9.08;;;;;;;-0.15;94.53;98468.77;1808647;77;21010;-67
2021/12/13 11:34:09;;;;;;;11.30;8.45;;;;;;;-0.20;94.47;98468.58;1790109;77;21738;-64
2021/12/13 11:37:18;;;;;;;13.00;8.75;;;;;;;-0.25;94.45;98463.13;1804072;77;21065;-67
2021/12/13 11:40:28;;;;;;;11.33;8.90;;;;;;;-0.28;94.52;98471.44;1805878;77;20885;-59
2021/12/13 11:43:28;;;;;;;12.75;9.45;;;;;;;-0.34;94.49;98465.70;1798853;78;20966;-64
2021/12/13 11:46:27;;;;;;;12.85;9.95;;;;;;;-0.32;94.74;98467.62;1761365;78;20963;-65
2021/12/13 11:49:30;;;;;;;15.50;10.35;;;;;;;-0.36;94.59;98467.75;1813554;77;21300;-60
2021/12/13 11:52:18;;;;;;;14.07;9.75;;;;;;;-0.38;94.62;98461.89;1812930;78;20827;-70
2021/12/13 11:55:39;;;;;;;12.95;9.58;;;;;;;-0.37;94.78;98467.43;1796182;77;21452;-63
2021/12/13 11:59:01;;;;;;;12.50;8.88;;;;;;;-0.33;94.89;98471.25;1805899;77;21031;-69
2021/12/13 12:02:03;;;;;;;13.03;9.40;;;;;;;-0.33;94.79;98462.58;1801453;77;21060;-59
2021/12/13 12:05:20;;;;;;;11.20;8.75;;;;;;;-0.35;94.73;98469.84;1690298;81;21046;-61
2021/12/13 12:08:33;;;;;;;13.40;9.18;;;;;;;-0.39;94.79;98466.84;1680753;83;21130;-69
2021/12/13 12:11:23;;;;;;;15.00;10.25;;;;;;;-0.39;94.82;98476.05;1645140;83;21086;-59
2021/12/13 12:14:09;;;;;;;12.33;9.33;;;;;;;-0.39;94.87;98468.66;1696455;83;21395;-58
2021/12/13 12:16:46;;;;;;;12.75;8.45;;;;;;;-0.39;94.87;98470.78;1696168;83;21560;-58
2021/12/13 12:19:21;;;;;;;12.37;8.65;;;;;;;-0.38;94.91;98475.05;1687817;83;21279;-67
2021/12/13 12:21:55;;;;;;;12.70;8.90;;;;;;;-0.38;94.81;98473.73;1705372;82;21019;-67
2021/12/13 12:24:43;;;;;;;11.75;8.30;;;;;;;-0.39;94.69;98470.78;1697849;83;21111;-61
2021/12/13 12:27:21;;;;;;;12.40;8.90;;;;;;;-0.42;94.77;98475.14;1643999;84;21542;-63
2021/12/13 12:29:58;;;;;;;12.55;8.80;;;;;;;-0.41;94.68;98476.77;1636014;85;21127;-64
2021/12/13 12:32:30;;;;;;;10.63;7.75;;;;;;;-0.41;94.68;98482.03;1656947;84;21397;-60
2021/12/13 12:35:02;;;;;;;12.75;8.50;;;;;;;-0.44;94.71;98486.39;1665039;83;20980;-60
2021/12/13 12:37:56;;;;;;;13.45;8.75;;;;;;;-0.43;94.60;98489.84;1679526;83;21117;-59
2021/12/13 12:41:07;;;;;;;10.20;8.00;;;;;;;-0.43;94.48;98484.58;1675985;82;20953;-68
2021/12/13 12:43:37;;;;;;;12.95;8.95;;;;;;;-0.46;94.36;98488.42;1669389;83;20999;-61
2021/12/13 12:46:10;;;;;;;12.33;8.70;;;;;;;-0.47;94.37;98490.75;1683675;82;21125;-63
2021/12/13 12:48:45;;;;;;;12.85;8.08;;;;;;;-0.50;94.13;98493.00;1701615;82;21038;-63
2021/12/13 12:51:19;;;;;;;11.48;8.30;;;;;;;-0.57;94.28;98493.02;1680272;82;21142;-59
2021/12/13 12:54:03;;;;;;;13.70;9.08;;;;;;;-0.58;94.36;98496.66;1694268;83;21008;-60
2021/12/13 12:56:46;;;;;;;14.25;8.60;;;;;;;-0.62;94.40;98498.09;1669591;83;21090;-63
2021/12/13 12:59:22;;;;;;;10.78;8.18;;;;;;;-0.67;94.42;98499.72;1659888;84;22384;-60
2021/12/13 13:02:00;;;;;;;11.30;8.65;;;;;;;-0.68;94.63;98506.80;1679132;84;20936;-64
2021/12/13 13:04:38;;;;;;;12.28;8.33;;;;;;;-0.70;94.68;98510.14;1676987;83;20960;-66
2021/12/13 13:07:18;;;;;;;12.68;8.93;;;;;;;-0.72;94.76;98501.66;1651649;84;21210;-61
2021/12/13 13:09:53;;;;;;;12.82;8.78;;;;;;;-0.71;94.84;98508.55;1688276;83;21144;-62
2021/12/13 13:12:31;;;;;;;12.50;8.95;;;;;;;-0.75;94.79;98512.08;1681904;83;21133;-64
2021/12/13 13:15:10;;;;;;;15.80;10.13;;;;;;;-0.78;94.87;98507.22;1674667;83;20995;-59
2021/12/13 13:17:44;;;;;;;13.65;9.70;;;;;;;-0.78;94.96;98514.33;1691368;83;21135;-61
2021/12/13 13:20:16;;;;;;;14.83;9.63;;;;;;;-0.78;95.11;98511.70;1678929;82;21030;-63
2021/12/13 13:22:44;;;;;;;13.88;9.28;;;;;;;-0.80;95.19;98513.73;1690787;82;21171;-62
2021/12/13 13:25:23;;;;;;;15.80;10.32;;;;;;;-0.80;95.24;98513.73;1695148;83;21138;-63
2021/12/13 13:27:50;;;;;;;14.83;10.15;;;;;;;-0.81;95.28;98514.73;1663649;84;20949;-61
2021/12/13 13:30:38;;;;;;;14.65;9.93;;;;;;;-0.80;95.19;98515.83;1686821;83;21019;-59
2021/12/13 13:33:05;;;;;;;14.40;10.40;;;;;;;-0.80;95.05;98525.03;1675533;83;21019;-62
2021/12/13 13:35:35;;;;;;;17.27;10.75;;;;;;;-0.86;95.07;98526.36;1686386;83;20886;-58
2021/12/13 13:38:04;;;;;;;18.23;11.70;;;;;;;-0.91;95.11;98530.11;1688199;83;21140;-62
2021/12/13 13:40:34;;;;;;;17.25;11.18;;;;;;;-0.97;95.17;98523.86;1690497;83;21057;-64
2021/12/13 13:43:15;;;;;;;17.15;11.00;;;;;;;-0.98;95.38;98527.98;1680704;83;21079;-60
2021/12/13 13:46:02;;;;;;;15.32;11.25;;;;;;;-1.01;96.59;98530.52;1682695;83;21042;-64
2021/12/13 13:48:37;;;;;;;18.40;12.30;;;;;;;-1.07;97.12;98533.97;1669400;83;21218;-62
2021/12/13 13:51:08;;;;;;;15.90;11.12;;;;;;;-1.12;97.20;98539.52;1703049;82;21124;-59
2021/12/13 13:53:44;;;;;;;18.15;12.33;;;;;;;-1.15;97.39;98535.98;1688881;83;21047;-59
2021/12/13 13:56:29;;;;;;;17.77;12.50;;;;;;;-1.17;97.30;98540.13;1665588;82;21123;-61
2021/12/13 13:59:19;;;;;;;19.55;12.35;;;;;;;-1.18;97.25;98549.55;1694413;83;21687;-64
2021/12/13 14:01:55;;;;;;;18.17;12.05;;;;;;;-1.21;97.24;98544.69;1684952;82;21117;-61
2021/12/13 14:04:26;;;;;;;16.23;11.55;;;;;;;-1.21;97.24;98546.81;1695988;82;21767;-64
2021/12/13 14:06:56;;;;;;;21.82;12.98;;;;;;;-1.18;97.29;98546.92;1703267;83;21013;-63
2021/12/13 14:09:27;;;;;;;18.40;12.78;;;;;;;-1.21;97.00;98561.27;1685360;82;21036;-62
2021/12/13 14:12:01;;;;;;;20.72;12.43;;;;;;;-1.25;97.00;98556.62;1704681;82;21056;-60
2021/12/13 14:14:51;;;;;;;19.62;12.40;;;;;;;-1.27;96.94;98553.39;1701233;82;20965;-60
2021/12/13 14:17:41;;;;;;;18.85;13.03;;;;;;;-1.29;96.82;98547.00;1684247;82;21641;-64
2021/12/13 14:20:19;;;;;;;18.02;12.25;;;;;;;-1.28;96.80;98557.02;1680699;82;20963;-66
2021/12/13 14:22:48;;;;;;;18.50;11.95;;;;;;;-1.28;96.64;98560.95;1689524;81;20960;-61
2021/12/13 14:25:35;;;;;;;19.25;12.43;;;;;;;-1.30;96.50;98565.61;1672832;84;21039;-60
2021/12/13 14:28:03;;;;;;;19.35;13.03;;;;;;;-1.31;96.60;98570.55;1648040;84;21540;-59
2021/12/13 14:30:40;;;;;;;19.62;12.13;;;;;;;-1.30;96.53;98565.11;1673469;83;22152;-63
2021/12/13 14:33:31;;;;;;;17.20;12.50;;;;;;;-1.29;96.47;98574.59;1700754;83;21107;-63
2021/12/13 14:36:15;;;;;;;20.95;13.98;;;;;;;-1.26;96.47;98565.50;1690979;83;21078;-60
2021/12/13 14:38:49;;;;;;;20.02;12.55;;;;;;;-1.26;96.20;98570.77;1679923;82;20983;-57
2021/12/13 14:41:18;;;;;;;21.82;13.13;;;;;;;-1.27;96.09;98583.62;1690298;82;21098;-62
2021/12/13 14:43:53;;;;;;;20.60;12.90;;;;;;;-1.27;95.97;98583.62;1681077;82;21116;-63
2021/12/13 14:46:27;;;;;;;20.37;12.40;;;;;;;-1.29;95.93;98581.67;1691938;82;21013;-61
2021/12/13 14:49:04;;;;;;;18.27;11.95;;;;;;;-1.31;95.92;98585.82;1675463;83;21508;-61
2021/12/13 14:51:37;;;;;;;16.65;12.03;;;;;;;-1.32;95.92;98583.41;1682663;82;20940;-61
2021/12/13 14:54:05;;;;;;;19.30;12.15;;;;;;;-1.31;95.85;98592.89;1664994;83;21672;-63
2021/12/13 14:56:39;;;;;;;18.65;11.05;;;;;;;-1.33;95.84;98596.23;1683544;83;21668;-59
2021/12/13 14:59:07;;;;;;;17.77;11.83;;;;;;;-1.33;95.74;98593.59;1686566;83;21058;-66
2021/12/13 15:01:37;;;;;;;19.95;12.58;;;;;;;-1.33;95.70;98601.48;1693318;83;21467;-62
2021/12/13 15:05:28;;;;;;;21.85;12.88;;;;;;;-1.28;95.61;98608.27;1878037;76;28053;-63
2021/12/13 15:07:57;;;;;;;20.88;13.10;;;;;;;-1.35;95.62;98612.70;1844106;77;21009;-60
2021/12/13 15:10:35;;;;;;;18.20;11.93;;;;;;;-1.32;95.54;98613.63;1837339;77;21122;-63
2021/12/13 15:13:06;;;;;;;19.70;13.22;;;;;;;-1.34;95.41;98616.97;1843445;77;20927;-61
2021/12/13 15:15:38;;;;;;;19.73;12.85;;;;;;;-1.34;95.07;98616.97;1845573;77;20914;-58
2021/12/13 15:18:11;;;;;;;19.90;12.50;;;;;;;-1.37;95.04;98626.84;1841198;77;20904;-63
2021/12/13 15:20:43;;;;;;;18.37;11.60;;;;;;;-1.39;95.15;98624.92;1853418;77;20935;-62
2021/12/13 15:23:19;;;;;;;19.52;11.93;;;;;;;-1.36;95.10;98628.97;1847790;77;21060;-58
2021/12/13 15:26:05;;;;;;;16.25;11.08;;;;;;;-1.35;94.92;98629.78;1845397;77;20959;-61
2021/12/13 15:28:44;;;;;;;19.57;12.88;;;;;;;-1.37;94.78;98631.80;1845149;77;21393;-61
2021/12/13 15:31:15;;;;;;;18.00;11.10;;;;;;;-1.38;94.90;98630.98;1841467;77;21431;-63
2021/12/13 15:33:44;;;;;;;16.82;11.78;;;;;;;-1.34;94.91;98635.36;1849462;77;20915;-59
2021/12/13 15:36:12;;;;;;;18.60;12.30;;;;;;;-1.39;94.78;98634.64;1838070;77;21360;-63
2021/12/13 15:38:41;;;;;;;18.17;12.47;;;;;;;-1.40;94.80;98643.02;1847549;77;20995;-62
2021/12/13 15:41:10;;;;;;;20.88;12.63;;;;;;;-1.40;94.78;98644.34;1842405;77;20912;-60
2021/12/13 15:43:42;;;;;;;17.73;11.65;;;;;;;-1.37;94.85;98648.89;1859365;77;20947;-62
2021/12/13 15:46:24;;;;;;;18.85;12.10;;;;;;;-1.33;94.77;98656.67;1844429;77;20892;-62
2021/12/13 15:52:11;;;;;;;18.90;11.68;;;;;;;-1.30;94.45;98653.16;1825471;78;20914;-61
2021/12/13 15:54:50;;;;;;;19.52;12.07;;;;;;;-1.31;94.32;98652.02;1825525;78;21470;-62
2021/12/13 15:57:26;;;;;;;17.67;12.18;;;;;;;-1.34;94.28;98652.44;1825397;78;20927;-56
2021/12/13 15:59:58;;;;;;;21.12;12.07;;;;;;;-1.39;94.21;98649.88;1845596;77;20916;-63
2021/12/13 16:02:36;;;;;;;20.45;11.97;;;;;;;-1.42;94.20;98657.37;1780085;80;21515;-61
2021/12/13 16:05:12;;;;;;;20.10;12.58;;;;;;;-1.41;94.32;98657.66;1756430;80;20870;-59
2021/12/13 16:07:40;;;;;;;22.82;13.48;;;;;;;-1.44;94.34;98661.48;1747997;82;20894;-61
2021/12/13 16:10:14;;;;;;;20.50;11.68;;;;;;;-1.44;94.37;98667.27;1747933;82;20966;-61
2021/12/13 16:12:43;;;;;;;16.87;11.12;;;;;;;-1.45;94.37;98673.02;1747991;82;20926;-62
2021/12/13 16:15:15;;;;;;;16.80;11.33;;;;;;;-1.49;94.24;98681.00;1747969;82;21703;-62
2021/12/13 16:17:47;;;;;;;19.27;12.53;;;;;;;-1.53;94.34;98678.44;1743146;82;20814;-61
2021/12/13 16:20:36;;;;;;;16.82;11.85;;;;;;;-1.52;94.37;98681.88;1743523;81;20903;-65
2021/12/13 16:23:09;;;;;;;22.55;13.05;;;;;;;-1.57;94.42;98677.22;1760170;81;21020;-62
2021/12/13 16:25:49;;;;;;;20.50;11.90;;;;;;;-1.57;94.55;98685.10;1758827;80;20952;-63
2021/12/13 16:28:27;;;;;;;19.00;12.05;;;;;;;-1.55;94.52;98681.77;1721845;83;21145;-59
2021/12/13 16:31:17;;;;;;;19.23;11.30;;;;;;;-1.55;94.57;98679.14;1810118;78;21222;-60
2021/12/13 16:34:02;;;;;;;18.82;10.98;;;;;;;-1.58;94.44;98674.27;1838971;78;21288;-65
2021/12/13 16:36:29;;;;;;;18.65;11.10;;;;;;;-1.62;94.53;98683.56;1816121;78;20990;-63
2021/12/13 16:39:07;;;;;;;16.82;11.70;;;;;;;-1.63;94.64;98672.77;1824805;78;20967;-63
2021/12/13 16:41:34;;;;;;;16.93;11.65;;;;;;;-1.62;94.57;98682.25;1825549;78;21394;-64
2021/12/13 16:44:04;;;;;;;20.62;11.85;;;;;;;-1.61;94.60;98677.31;1825078;78;20868;-61
2021/12/13 16:46:32;;;;;;;18.77;11.83;;;;;;;-1.58;94.64;98680.84;1825145;78;20829;-63
2021/12/13 16:49:09;;;;;;;15.68;10.53;;;;;;;-1.55;94.50;98684.39;1825039;78;20963;-61
2021/12/13 16:51:47;;;;;;;19.25;12.33;;;;;;;-1.54;94.40;98686.53;1825073;78;21375;-61
2021/12/13 16:54:22;;;;;;;17.10;11.25;;;;;;;-1.55;94.45;98689.66;1825184;78;21121;-58
2021/12/13 16:56:49;;;;;;;16.70;10.68;;;;;;;-1.55;94.42;98689.66;1824707;78;20947;-58
2021/12/13 16:59:16;;;;;;;15.15;10.50;;;;;;;-1.54;94.45;98689.97;1825128;78;20947;-61
2021/12/13 17:01:48;;;;;;;18.80;12.05;;;;;;;-1.52;94.45;98693.20;1821090;78;20881;-63
2021/12/13 17:04:22;;;;;;;20.57;12.68;;;;;;;-1.49;94.44;98694.14;1821770;78;20956;-64
2021/12/13 17:06:58;;;;;;;17.70;11.33;;;;;;;-1.48;94.39;98703.63;1840055;77;21053;-60
